Time;durP1;ratioP1;P1;durP2;ratioP2;P2;SDS_P1;SDS_P2;PMS_P1;PMS_P2;Temp;Humidity;BMP_temperature;BMP_pressure;BME280_temperature;BME280_humidity;BME280_pressure;Samples;Min_cycle;Max_cycle;Signal;HPM_P1;HPM_P2
2021/11/15 00:01:15;;;;;;;59.10;35.68;;;;;;;9.04;57.77;101384.67;1733152;82;21084;-67
2021/11/15 00:03:44;;;;;;;64.42;37.67;;;;;;;8.71;57.51;101392.91;1733349;80;20852;-68
2021/11/15 00:06:11;;;;;;;60.33;36.83;;;;;;;8.75;56.19;101386.46;1732944;82;21155;-68
2021/11/15 00:08:40;;;;;;;68.85;40.75;;;;;;;8.47;56.49;101392.08;1705893;83;21564;-67
2021/11/15 00:11:07;;;;;;;66.35;40.40;;;;;;;8.46;56.13;101396.95;1705030;83;20961;-68
2021/11/15 00:13:36;;;;;;;64.20;40.28;;;;;;;8.27;56.50;101392.59;1712243;83;21014;-67
2021/11/15 00:16:05;;;;;;;60.70;37.67;;;;;;;8.31;57.13;101394.42;1733985;82;20936;-70
2021/11/15 00:18:32;;;;;;;56.68;35.70;;;;;;;8.29;57.33;101390.66;1733866;82;21324;-69
2021/11/15 00:21:00;;;;;;;57.80;36.45;;;;;;;8.36;56.99;101397.41;1735663;82;21575;-69
2021/11/15 00:23:30;;;;;;;56.45;34.80;;;;;;;8.28;57.19;101394.70;1702062;83;20983;-69
2021/11/15 00:25:57;;;;;;;54.42;34.30;;;;;;;8.31;57.23;101385.33;1741211;81;20991;-70
2021/11/15 00:28:25;;;;;;;54.58;34.00;;;;;;;8.26;57.59;101383.64;1741306;82;21026;-67
2021/11/15 00:30:52;;;;;;;54.23;33.13;;;;;;;8.28;57.90;101367.42;1741851;82;22244;-69
2021/11/15 00:33:20;;;;;;;56.10;36.45;;;;;;;8.38;58.35;101372.16;1741616;82;20927;-69
2021/11/15 00:35:47;;;;;;;47.98;30.55;;;;;;;8.26;58.28;101369.36;1741538;82;20940;-69
2021/11/15 00:38:16;;;;;;;51.53;30.70;;;;;;;8.42;58.05;101360.52;1741165;82;21466;-68
2021/11/15 00:40:43;;;;;;;50.95;32.25;;;;;;;8.45;57.79;101368.03;1741736;82;22453;-68
2021/11/15 00:43:10;;;;;;;45.08;30.40;;;;;;;8.17;58.50;101361.91;1742065;82;21773;-68
2021/11/15 00:45:38;;;;;;;51.40;33.28;;;;;;;8.11;59.43;101369.46;1741023;82;21042;-69
2021/11/15 00:48:06;;;;;;;63.33;37.88;;;;;;;7.99;59.79;101378.70;1741391;81;21031;-69
2021/11/15 00:50:33;;;;;;;48.15;30.65;;;;;;;8.38;58.08;101366.14;1741546;82;21422;-70
2021/11/15 00:53:00;;;;;;;50.58;32.42;;;;;;;8.08;59.31;101364.05;1741688;82;21066;-68
2021/11/15 00:55:27;;;;;;;53.33;31.95;;;;;;;8.26;59.07;101364.16;1740913;82;21100;-68
2021/11/15 00:57:54;;;;;;;53.15;32.23;;;;;;;8.15;59.29;101365.63;1741671;82;21607;-69
2021/11/15 01:00:25;;;;;;;38.80;25.43;;;;;;;8.08;60.36;101352.86;1741141;82;21014;-69
2021/11/15 01:02:53;;;;;;;47.35;29.77;;;;;;;8.00;60.67;101360.05;1742055;82;21276;-69
2021/11/15 01:05:20;;;;;;;46.00;27.58;;;;;;;8.00;59.55;101359.56;1741406;80;21473;-68
2021/11/15 01:07:49;;;;;;;74.50;43.73;;;;;;;8.04;59.66;101371.30;1742009;82;22126;-68
2021/11/15 01:10:19;;;;;;;33.45;21.00;;;;;;;7.99;59.94;101372.21;1741318;82;20988;-70
2021/11/15 01:12:46;;;;;;;32.75;20.37;;;;;;;8.03;60.95;101374.87;1741787;82;22069;-68
2021/11/15 01:15:17;;;;;;;29.95;17.92;;;;;;;8.01;61.01;101370.28;1741369;82;21055;-69
2021/11/15 01:17:43;;;;;;;34.75;23.77;;;;;;;8.16;60.45;101359.47;1741802;82;20939;-68
2021/11/15 01:20:13;;;;;;;42.90;26.02;;;;;;;8.41;59.25;101361.48;1741655;82;21320;-69
2021/11/15 01:22:40;;;;;;;40.25;27.40;;;;;;;8.19;59.02;101360.00;1720850;82;21085;-68
2021/11/15 01:25:08;;;;;;;46.18;27.55;;;;;;;8.11;58.86;101357.77;1741544;82;20999;-68
2021/11/15 01:27:36;;;;;;;46.40;29.40;;;;;;;8.04;59.42;101354.42;1741216;82;21019;-69
2021/11/15 01:30:06;;;;;;;42.08;27.73;;;;;;;8.29;58.65;101371.66;1742423;81;21474;-68
2021/11/15 01:32:34;;;;;;;43.98;28.85;;;;;;;8.34;58.22;101378.56;1741612;82;21329;-68
2021/11/15 01:35:01;;;;;;;43.65;28.00;;;;;;;8.31;58.31;101380.62;1742042;82;21071;-67
2021/11/15 01:37:29;;;;;;;38.50;24.72;;;;;;;8.40;57.86;101388.41;1709714;83;20991;-69
2021/11/15 01:39:57;;;;;;;21.33;13.78;;;;;;;8.38;57.69;101401.22;1741462;82;21062;-68
2021/11/15 01:42:24;;;;;;;16.67;11.75;;;;;;;8.41;57.04;101404.81;1708630;83;21027;-68
2021/11/15 01:44:51;;;;;;;12.70;8.40;;;;;;;8.47;56.82;101408.97;1741172;82;21077;-67
2021/11/15 01:47:18;;;;;;;14.75;9.45;;;;;;;8.24;57.70;101404.55;1740984;80;21003;-68
2021/11/15 01:49:45;;;;;;;16.75;10.70;;;;;;;8.26;58.64;101396.16;1727405;82;22385;-67
2021/11/15 01:52:13;;;;;;;45.98;28.47;;;;;;;8.32;59.29;101372.67;1730162;82;21061;-67
2021/11/15 01:54:42;;;;;;;62.85;40.23;;;;;;;8.36;59.27;101362.34;1731112;81;21472;-67
2021/11/15 01:57:12;;;;;;;65.85;40.05;;;;;;;8.43;58.68;101388.12;1730723;82;21153;-68
2021/11/15 01:59:39;;;;;;;65.20;38.90;;;;;;;8.36;57.87;101394.81;1729691;82;21137;-68
2021/11/15 02:02:06;;;;;;;76.45;46.98;;;;;;;8.31;57.73;101398.33;1699301;83;21429;-68
2021/11/15 02:04:33;;;;;;;61.08;37.58;;;;;;;8.54;56.93;101389.75;1716176;81;21589;-69
2021/11/15 02:07:00;;;;;;;55.92;36.08;;;;;;;8.43;56.37;101388.61;1767288;80;21108;-69
2021/11/15 02:09:29;;;;;;;63.28;38.92;;;;;;;8.36;55.75;101383.13;1765930;80;21158;-68
2021/11/15 02:11:57;;;;;;;64.03;39.25;;;;;;;8.15;55.61;101378.61;1767777;80;20993;-68
2021/11/15 02:14:24;;;;;;;71.67;43.30;;;;;;;8.04;55.55;101388.66;1767136;80;21003;-68
2021/11/15 02:16:51;;;;;;;74.32;43.55;;;;;;;8.16;55.03;101380.23;1766834;80;21002;-68
2021/11/15 02:19:19;;;;;;;68.15;43.78;;;;;;;8.14;54.85;101376.95;1766448;78;22323;-68
2021/11/15 02:21:46;;;;;;;69.15;45.83;;;;;;;8.06;55.10;101375.05;1762106;80;21228;-67
2021/11/15 02:24:16;;;;;;;80.17;46.73;;;;;;;8.00;55.65;101393.80;1762178;80;21093;-69
2021/11/15 02:26:43;;;;;;;72.17;45.35;;;;;;;8.03;55.99;101400.84;1760640;80;21002;-68
2021/11/15 02:29:10;;;;;;;72.42;45.65;;;;;;;8.10;55.97;101404.16;1762591;80;21556;-69
2021/11/15 02:31:37;;;;;;;70.42;45.95;;;;;;;8.07;56.42;101416.11;1759838;80;21065;-68
2021/11/15 02:34:05;;;;;;;70.92;44.18;;;;;;;7.94;57.31;101410.73;1763079;80;21163;-67
2021/11/15 02:36:33;;;;;;;76.02;43.30;;;;;;;8.06;57.79;101406.21;1764443;80;21009;-68
2021/11/15 02:39:01;;;;;;;100.42;62.75;;;;;;;8.10;58.00;101408.05;1759563;80;20998;-67
2021/11/15 02:41:29;;;;;;;96.00;58.15;;;;;;;8.25;57.58;101406.17;1767853;80;21081;-67
2021/11/15 02:43:56;;;;;;;96.35;58.92;;;;;;;8.47;56.98;101395.98;1771698;80;21160;-68
2021/11/15 02:46:23;;;;;;;83.58;50.60;;;;;;;8.56;56.03;101390.89;1769592;80;21076;-67
2021/11/15 02:48:51;;;;;;;84.90;52.30;;;;;;;8.60;55.41;101398.73;1770985;80;20911;-68
2021/11/15 02:51:18;;;;;;;81.22;51.13;;;;;;;8.49;55.36;101401.87;1769770;80;21036;-68
2021/11/15 02:53:46;;;;;;;92.62;55.75;;;;;;;8.52;54.45;101400.75;1770883;80;21041;-68
2021/11/15 02:56:14;;;;;;;85.05;49.98;;;;;;;8.53;54.04;101394.13;1770042;80;21453;-67
2021/11/15 02:58:41;;;;;;;90.83;54.18;;;;;;;8.45;53.91;101389.30;1771678;80;21151;-69
2021/11/15 03:01:14;;;;;;;81.32;51.58;;;;;;;8.28;53.35;101386.91;1765459;80;21590;-68
2021/11/15 03:03:41;;;;;;;79.72;48.00;;;;;;;8.02;53.57;101379.70;1771316;80;21058;-68
2021/11/15 03:06:08;;;;;;;78.67;45.05;;;;;;;7.99;53.01;101389.54;1775972;80;21151;-68
2021/11/15 03:08:36;;;;;;;69.65;42.38;;;;;;;7.78;53.17;101395.70;1776207;79;21101;-68
2021/11/15 03:11:05;;;;;;;70.72;43.17;;;;;;;7.70;53.31;101391.69;1776946;80;21134;-69
2021/11/15 03:13:42;;;;;;;63.58;39.42;;;;;;;7.49;53.76;101393.09;1778654;80;21096;-69
2021/11/15 03:16:10;;;;;;;70.00;40.38;;;;;;;7.23;54.52;101390.17;1774628;80;21014;-69
2021/11/15 03:18:38;;;;;;;64.77;38.53;;;;;;;7.35;54.20;101383.58;1776644;80;21840;-69
2021/11/15 03:21:22;;;;;;;65.35;40.70;;;;;;;7.29;54.08;101386.24;1774914;80;21073;-68
2021/11/15 03:23:54;;;;;;;57.00;35.23;;;;;;;7.30;54.34;101382.69;1779648;80;21113;-67
2021/11/15 03:26:22;;;;;;;64.70;38.38;;;;;;;7.40;54.02;101382.72;1783068;80;21050;-68
2021/11/15 03:28:50;;;;;;;57.83;36.48;;;;;;;7.32;53.61;101380.80;1783974;80;20997;-68
2021/11/15 03:31:28;;;;;;;54.27;34.92;;;;;;;7.33;54.04;101384.20;1784123;80;21076;-68
2021/11/15 03:33:59;;;;;;;64.40;37.28;;;;;;;7.31;53.92;101394.24;1784321;80;21650;-68
2021/11/15 03:36:26;;;;;;;62.67;37.28;;;;;;;7.35;54.22;101397.39;1783114;80;21140;-69
2021/11/15 03:38:56;;;;;;;101.20;52.40;;;;;;;7.23;55.20;101398.44;1783304;80;21310;-69
2021/11/15 03:41:24;;;;;;;77.87;44.85;;;;;;;7.05;55.97;101404.75;1783045;80;21097;-68
2021/11/15 03:43:52;;;;;;;78.67;45.92;;;;;;;7.16;56.56;101403.36;1781063;80;20950;-68
2021/11/15 03:46:20;;;;;;;82.57;46.42;;;;;;;7.31;56.40;101414.14;1782955;80;21082;-68
2021/11/15 03:48:47;;;;;;;78.72;48.40;;;;;;;7.27;57.05;101403.70;1782982;80;21134;-69
2021/11/15 03:51:14;;;;;;;70.75;44.27;;;;;;;7.51;56.74;101402.87;1781581;80;21043;-68
2021/11/15 03:53:42;;;;;;;74.70;44.90;;;;;;;7.25;58.17;101399.13;1781002;80;20899;-69
2021/11/15 03:56:13;;;;;;;70.05;43.90;;;;;;;7.45;58.65;101405.98;1781653;80;21160;-69
2021/11/15 03:58:42;;;;;;;76.12;46.20;;;;;;;7.52;60.03;101407.58;1783886;80;21139;-69
2021/11/15 04:01:09;;;;;;;75.35;45.90;;;;;;;7.70;60.60;101407.73;1760487;79;21623;-68
2021/11/15 04:03:38;;;;;;;75.12;45.70;;;;;;;7.81;61.21;101405.01;1720962;83;21534;-68
2021/11/15 04:06:21;;;;;;;65.35;44.15;;;;;;;7.85;62.06;101416.75;1739459;82;21000;-68
2021/11/15 04:08:42;;;;;;;68.72;43.70;;;;;;;8.15;62.23;101422.77;1719584;81;21030;-68
2021/11/15 04:11:10;;;;;;;61.53;38.60;;;;;;;8.34;61.84;101421.91;1738200;81;21050;-68
2021/11/15 04:13:41;;;;;;;54.93;34.58;;;;;;;8.45;61.65;101420.00;1721082;83;20918;-67
2021/11/15 04:16:10;;;;;;;51.48;32.95;;;;;;;8.72;61.18;101416.63;1738866;82;20972;-68
2021/11/15 04:18:42;;;;;;;47.93;30.25;;;;;;;8.46;62.33;101416.44;1719685;83;21493;-67
2021/11/15 04:21:09;;;;;;;50.92;32.95;;;;;;;8.70;62.30;101419.03;1739402;82;20979;-67
2021/11/15 04:23:36;;;;;;;45.78;30.00;;;;;;;8.71;62.86;101427.16;1719332;83;21081;-67
2021/11/15 04:26:04;;;;;;;46.20;31.30;;;;;;;8.89;62.37;101424.64;1735206;82;21833;-67
2021/11/15 04:28:31;;;;;;;49.95;32.63;;;;;;;9.21;60.93;101419.02;1720466;83;21559;-67
2021/11/15 04:30:59;;;;;;;49.40;33.88;;;;;;;9.49;59.35;101415.90;1738807;82;21336;-67
2021/11/15 04:33:25;;;;;;;54.20;35.10;;;;;;;9.44;59.12;101415.05;1739597;82;21466;-67
2021/11/15 04:35:53;;;;;;;52.93;34.53;;;;;;;9.52;58.74;101420.00;1721177;83;20988;-66
2021/11/15 04:38:21;;;;;;;68.20;38.98;;;;;;;9.57;58.09;101419.87;1738489;82;20995;-69
2021/11/15 04:40:48;;;;;;;50.08;31.52;;;;;;;9.94;56.83;101430.64;1720960;83;21108;-67
2021/11/15 04:43:15;;;;;;;49.60;32.55;;;;;;;9.99;55.56;101433.12;1737064;82;21541;-66
2021/11/15 04:45:43;;;;;;;68.72;42.50;;;;;;;9.88;55.26;101435.95;1716549;83;21560;-67
2021/11/15 04:48:11;;;;;;;69.40;44.30;;;;;;;9.89;54.91;101441.52;1732098;82;21469;-67
2021/11/15 04:50:38;;;;;;;62.03;40.25;;;;;;;9.91;54.24;101442.66;1714301;81;21540;-68
2021/11/15 04:53:06;;;;;;;52.27;30.02;;;;;;;9.93;54.44;101432.43;1734540;81;21038;-68
2021/11/15 04:55:37;;;;;;;57.67;36.20;;;;;;;9.90;54.81;101435.33;1731980;80;21145;-67
2021/11/15 04:58:05;;;;;;;30.35;19.65;;;;;;;9.92;54.69;101433.37;1715338;83;20998;-65
2021/11/15 05:00:34;;;;;;;30.20;19.40;;;;;;;9.85;55.04;101428.45;1736582;82;20979;-69
2021/11/15 05:03:01;;;;;;;27.13;16.93;;;;;;;10.02;55.17;101435.09;1718674;83;22571;-65
2021/11/15 05:05:28;;;;;;;17.65;10.68;;;;;;;10.17;54.81;101441.41;1735008;82;21315;-62
2021/11/15 05:07:57;;;;;;;16.45;9.85;;;;;;;10.27;55.14;101440.87;1718419;83;21164;-62
2021/11/15 05:10:26;;;;;;;14.65;9.30;;;;;;;10.45;55.13;101448.17;1717277;83;21453;-63
2021/11/15 05:12:56;;;;;;;13.55;8.90;;;;;;;10.63;54.66;101440.28;1708896;83;21057;-66
2021/11/15 05:15:23;;;;;;;10.90;8.33;;;;;;;10.89;53.97;101444.17;1711628;83;21151;-61
2021/11/15 05:17:50;;;;;;;13.13;7.95;;;;;;;11.12;53.41;101441.01;1701608;83;21600;-63
2021/11/15 05:20:18;;;;;;;13.65;8.50;;;;;;;11.22;52.89;101440.40;1731068;82;21012;-72
2021/11/15 05:22:46;;;;;;;12.03;7.90;;;;;;;11.44;52.41;101447.65;1737111;82;21105;-71
2021/11/15 05:25:14;;;;;;;10.35;7.83;;;;;;;11.49;51.98;101443.25;1734212;81;21019;-61
2021/11/15 05:27:42;;;;;;;13.32;8.53;;;;;;;11.62;51.61;101447.50;1717802;82;21143;-64
2021/11/15 05:30:12;;;;;;;14.50;8.23;;;;;;;11.32;51.94;101448.09;1716795;81;21003;-62
2021/11/15 05:32:39;;;;;;;14.20;7.83;;;;;;;11.51;51.42;101453.03;1708885;80;20963;-64
2021/11/15 05:35:07;;;;;;;14.10;8.93;;;;;;;11.65;51.11;101444.58;1715929;81;21048;-61
2021/11/15 05:37:34;;;;;;;11.88;8.28;;;;;;;11.57;50.99;101445.06;1716876;81;21539;-61
2021/11/15 05:40:02;;;;;;;15.08;9.25;;;;;;;11.76;50.60;101448.68;1717397;81;22099;-62
2021/11/15 05:42:30;;;;;;;15.68;8.70;;;;;;;11.63;50.64;101444.40;1721151;80;21479;-62
2021/11/15 05:44:57;;;;;;;12.37;7.95;;;;;;;11.78;50.34;101455.88;1716715;81;22336;-67
2021/11/15 05:47:24;;;;;;;15.60;8.40;;;;;;;11.90;49.88;101452.00;1716859;81;21582;-65
2021/11/15 05:49:52;;;;;;;11.65;8.03;;;;;;;11.85;49.92;101458.18;1715217;81;21049;-65
2021/11/15 05:52:22;;;;;;;11.00;8.13;;;;;;;11.86;50.02;101456.41;1714655;81;21157;-73
2021/11/15 05:54:48;;;;;;;11.25;7.53;;;;;;;11.95;49.76;101455.42;1715233;81;21053;-75
2021/11/15 05:57:15;;;;;;;13.05;8.65;;;;;;;12.29;49.17;101461.80;1714294;80;21090;-64
2021/11/15 05:59:43;;;;;;;11.50;7.83;;;;;;;12.30;48.96;101459.99;1716915;80;21010;-64
2021/11/15 06:02:10;;;;;;;14.03;8.73;;;;;;;12.43;48.59;101460.81;1715380;81;21001;-72
2021/11/15 06:04:38;;;;;;;13.38;8.78;;;;;;;12.32;48.61;101456.24;1715896;81;21158;-67
2021/11/15 06:07:06;;;;;;;22.27;10.65;;;;;;;12.53;47.93;101458.33;1715401;81;21473;-62
2021/11/15 06:09:34;;;;;;;14.53;9.50;;;;;;;12.58;47.86;101461.28;1715077;81;21527;-61
2021/11/15 06:12:03;;;;;;;10.70;7.37;;;;;;;12.97;47.29;101455.28;1715466;81;21583;-65
2021/11/15 06:14:30;;;;;;;13.35;8.20;;;;;;;13.15;46.36;101455.05;1714757;81;21057;-73
2021/11/15 06:16:57;;;;;;;19.50;11.30;;;;;;;13.18;46.00;101454.69;1715905;81;21113;-63
2021/11/15 06:19:25;;;;;;;17.10;10.00;;;;;;;13.84;46.24;101449.43;1716460;80;21013;-63
2021/11/15 06:21:53;;;;;;;13.13;8.00;;;;;;;14.42;46.18;101455.00;1716480;81;20958;-63
2021/11/15 06:24:20;;;;;;;11.65;7.75;;;;;;;15.30;45.06;101442.38;1713621;81;20958;-65
2021/11/15 06:26:47;;;;;;;9.40;6.60;;;;;;;16.24;43.58;101444.08;1715651;81;21071;-71
2021/11/15 06:29:15;;;;;;;11.43;6.75;;;;;;;13.69;47.61;101445.12;1714461;81;22013;-64
2021/11/15 06:31:42;;;;;;;19.55;12.82;;;;;;;15.70;44.87;101433.61;1716811;81;20935;-64
2021/11/15 06:34:09;;;;;;;14.83;7.80;;;;;;;16.70;43.28;101427.25;1717007;81;21469;-65
2021/11/15 06:36:36;;;;;;;45.70;31.17;;;;;;;17.05;42.30;101419.36;1718185;81;21099;-65
2021/11/15 06:39:03;;;;;;;33.80;26.60;;;;;;;16.32;42.79;101424.70;1716299;81;21304;-64
2021/11/15 06:41:31;;;;;;;37.33;26.03;;;;;;;16.47;42.14;101417.00;1716493;81;21679;-67
2021/11/15 06:43:58;;;;;;;28.83;20.10;;;;;;;16.90;42.40;101420.82;1717735;81;21391;-68
2021/11/15 06:46:28;;;;;;;11.60;7.13;;;;;;;17.44;41.16;101412.58;1716810;81;21781;-68
2021/11/15 06:48:55;;;;;;;27.00;19.77;;;;;;;17.93;38.75;101412.75;1718517;81;21623;-71
2021/11/15 06:51:22;;;;;;;15.77;10.47;;;;;;;17.68;37.84;101409.35;1715712;81;21563;-65
2021/11/15 06:53:49;;;;;;;11.80;4.53;;;;;;;16.48;38.65;101422.60;1717580;81;21096;-66
2021/11/15 06:56:16;;;;;;;9.23;4.97;;;;;;;15.87;38.57;101426.27;1715221;81;21668;-68
2021/11/15 06:58:44;;;;;;;16.70;6.37;;;;;;;15.44;38.61;101434.63;1715975;81;21786;-73
2021/11/15 07:01:11;;;;;;;7.53;4.30;;;;;;;14.82;39.79;101441.17;1715016;81;21528;-69
2021/11/15 07:03:38;;;;;;;7.53;3.90;;;;;;;14.49;39.85;101432.80;1716836;81;21619;-67
2021/11/15 07:06:05;;;;;;;7.10;4.20;;;;;;;14.34;40.31;101443.28;1716194;81;21343;-66
2021/11/15 07:08:33;;;;;;;6.77;4.10;;;;;;;14.14;40.47;101443.47;1716359;81;21182;-66
2021/11/15 07:11:00;;;;;;;6.23;4.40;;;;;;;13.85;40.76;101447.13;1715469;81;21164;-65
2021/11/15 07:13:27;;;;;;;7.30;4.27;;;;;;;13.53;41.36;101435.57;1715040;81;21321;-64
2021/11/15 07:15:55;;;;;;;8.33;4.43;;;;;;;13.20;41.80;101443.56;1716962;81;21705;-65
2021/11/15 07:18:22;;;;;;;9.70;5.03;;;;;;;13.08;42.05;101442.31;1714587;81;21805;-65
2021/11/15 07:20:49;;;;;;;8.30;4.47;;;;;;;12.89;42.55;101444.34;1716605;81;21447;-72
2021/11/15 07:23:16;;;;;;;6.47;4.33;;;;;;;12.64;42.78;101450.63;1712617;81;21315;-65
2021/11/15 07:25:45;;;;;;;7.80;4.60;;;;;;;12.59;43.38;101449.02;1715760;81;21089;-66
2021/11/15 07:28:12;;;;;;;7.10;4.67;;;;;;;12.69;43.39;101455.34;1711038;81;20975;-68
2021/11/15 07:30:40;;;;;;;8.55;5.30;;;;;;;12.50;43.75;101451.30;1715904;81;21243;-67
2021/11/15 07:33:08;;;;;;;5.87;4.03;;;;;;;12.85;43.78;101447.47;1715927;81;21013;-70
2021/11/15 07:35:35;;;;;;;7.15;4.70;;;;;;;12.93;43.77;101449.25;1716548;81;21479;-65
2021/11/15 07:38:02;;;;;;;12.60;6.42;;;;;;;12.79;44.07;101457.30;1717165;81;20978;-67
2021/11/15 07:40:31;;;;;;;9.25;5.35;;;;;;;13.17;43.69;101453.56;1715926;81;20950;-65
2021/11/15 07:42:59;;;;;;;10.00;4.60;;;;;;;13.52;43.36;101445.20;1716468;81;22234;-71
2021/11/15 07:45:26;;;;;;;8.47;5.13;;;;;;;13.96;42.49;101452.95;1715166;81;21251;-66
2021/11/15 07:47:53;;;;;;;7.80;5.30;;;;;;;13.99;41.77;101456.04;1716347;80;21518;-66
2021/11/15 07:50:21;;;;;;;10.23;5.03;;;;;;;14.02;41.68;101453.57;1712849;81;21289;-67
2021/11/15 07:52:49;;;;;;;6.77;4.03;;;;;;;14.00;41.47;101458.97;1716562;81;21214;-69
2021/11/15 07:55:17;;;;;;;8.73;4.63;;;;;;;13.96;41.27;101452.95;1715675;81;21078;-67
2021/11/15 07:57:44;;;;;;;7.67;4.80;;;;;;;13.98;41.53;101458.81;1716043;80;21270;-65
2021/11/15 08:00:16;;;;;;;8.10;4.83;;;;;;;14.25;41.39;101464.84;1714614;81;21243;-66
2021/11/15 08:02:43;;;;;;;6.30;4.30;;;;;;;14.70;40.99;101459.19;1715685;80;21115;-69
2021/11/15 08:05:13;;;;;;;7.83;4.73;;;;;;;15.31;40.43;101455.83;1712878;81;20904;-70
2021/11/15 08:07:40;;;;;;;6.97;4.70;;;;;;;15.84;39.62;101452.16;1713135;81;22443;-66
2021/11/15 08:10:10;;;;;;;8.37;5.50;;;;;;;16.22;38.91;101459.25;1714838;81;21302;-66
2021/11/15 08:12:40;;;;;;;7.33;5.70;;;;;;;16.94;36.95;101462.07;1715146;81;21303;-66
2021/11/15 08:15:10;;;;;;;9.00;5.70;;;;;;;16.94;36.95;101462.07;1708856;81;21525;-70
2021/11/15 08:17:39;;;;;;;8.85;5.83;;;;;;;17.05;36.05;101457.56;1715311;81;22649;-65
2021/11/15 08:20:09;;;;;;;9.53;6.37;;;;;;;17.33;35.76;101457.95;1715470;81;21956;-66
2021/11/15 08:22:36;;;;;;;9.65;6.67;;;;;;;17.56;35.33;101458.42;1709282;81;22029;-67
2021/11/15 08:25:42;;;;;;;9.47;7.33;;;;;;;17.30;36.13;101456.52;1715536;80;20998;-68
2021/11/15 08:28:09;;;;;;;10.60;7.83;;;;;;;17.87;35.35;101457.08;1712524;81;22276;-66
2021/11/15 08:30:38;;;;;;;11.80;8.40;;;;;;;18.01;34.35;101454.76;1714798;80;21737;-70
2021/11/15 08:33:05;;;;;;;10.17;7.67;;;;;;;17.67;34.82;101464.43;1716183;81;22025;-68
2021/11/15 08:35:33;;;;;;;10.03;8.20;;;;;;;17.91;34.24;101451.70;1714622;80;22317;-68
2021/11/15 08:38:29;;;;;;;8.43;7.00;;;;;;;17.89;34.02;101451.11;1716273;81;21789;-67
2021/11/15 08:40:56;;;;;;;10.50;7.03;;;;;;;17.78;33.95;101454.34;1720502;81;21782;-68
2021/11/15 08:43:23;;;;;;;10.17;6.30;;;;;;;17.06;34.39;101463.13;1720981;81;22178;-67
2021/11/15 08:45:51;;;;;;;10.57;6.90;;;;;;;17.52;33.71;101459.83;1720933;81;21667;-67
2021/11/15 08:48:19;;;;;;;9.97;6.67;;;;;;;17.48;34.02;101457.30;1720642;80;22203;-71
2021/11/15 08:50:46;;;;;;;7.67;5.70;;;;;;;17.49;34.41;101448.36;1717849;81;21648;-67
2021/11/15 08:53:13;;;;;;;8.03;5.37;;;;;;;17.87;33.50;101442.57;1720719;80;22635;-67
2021/11/15 08:55:40;;;;;;;8.10;5.53;;;;;;;18.26;33.38;101449.69;1719770;81;21757;-68
2021/11/15 08:58:07;;;;;;;11.37;7.43;;;;;;;18.62;33.15;101449.72;1720446;81;21616;-69
2021/11/15 09:00:34;;;;;;;8.57;6.10;;;;;;;18.93;32.60;101451.68;1716831;81;21666;-68
2021/11/15 09:03:01;;;;;;;7.43;5.40;;;;;;;19.06;32.40;101446.87;1719127;81;22788;-67
2021/11/15 09:05:28;;;;;;;8.90;6.27;;;;;;;19.48;31.61;101441.47;1715531;80;21562;-67
2021/11/15 09:07:55;;;;;;;8.57;5.77;;;;;;;19.30;31.25;101443.48;1716618;80;21774;-68
2021/11/15 09:10:24;;;;;;;9.30;6.43;;;;;;;19.43;31.19;101441.27;1716671;80;21239;-68
2021/11/15 09:12:51;;;;;;;9.50;7.97;;;;;;;19.05;31.69;101441.27;1713628;81;21185;-69
2021/11/15 09:15:19;;;;;;;11.80;8.03;;;;;;;19.55;31.30;101438.27;1718166;81;21351;-67
2021/11/15 09:17:46;;;;;;;8.33;6.30;;;;;;;19.66;30.60;101431.00;1720029;81;21517;-67
2021/11/15 09:20:14;;;;;;;8.63;6.93;;;;;;;19.41;30.85;101431.44;1718090;81;20990;-71
2021/11/15 09:22:41;;;;;;;11.57;8.20;;;;;;;19.50;30.47;101432.79;1714941;81;21636;-73
2021/11/15 09:25:09;;;;;;;12.23;8.60;;;;;;;19.66;30.69;101444.72;1716919;81;21851;-67
2021/11/15 09:27:38;;;;;;;10.23;7.47;;;;;;;19.66;30.69;101444.72;1717413;81;21571;-68
2021/11/15 09:30:08;;;;;;;9.73;8.10;;;;;;;19.63;30.27;101442.00;1708017;80;21783;-67
2021/11/15 09:32:35;;;;;;;11.43;9.23;;;;;;;19.60;30.11;101446.87;1714621;81;21520;-68
2021/11/15 09:35:04;;;;;;;11.13;9.47;;;;;;;19.37;30.50;101446.11;1709825;80;22079;-66
2021/11/15 09:37:31;;;;;;;12.43;9.63;;;;;;;19.37;30.50;101446.11;1719645;81;20935;-66
2021/11/15 09:39:58;;;;;;;9.27;7.57;;;;;;;19.30;30.33;101456.70;1710552;81;21705;-67
2021/11/15 09:42:27;;;;;;;9.90;8.13;;;;;;;19.13;30.83;101460.36;1716448;81;21772;-68
2021/11/15 09:44:55;;;;;;;11.43;8.57;;;;;;;19.37;30.66;101458.00;1709053;80;21751;-67
2021/11/15 09:47:23;;;;;;;12.10;9.00;;;;;;;19.39;30.92;101453.30;1712350;81;21749;-66
2021/11/15 09:49:50;;;;;;;12.07;9.10;;;;;;;19.52;31.01;101447.95;1708513;81;21757;-67
2021/11/15 09:52:18;;;;;;;17.33;11.23;;;;;;;19.62;30.63;101448.81;1718249;81;21737;-71
2021/11/15 09:54:46;;;;;;;11.43;8.47;;;;;;;19.62;30.63;101448.81;1717250;81;22165;-66
2021/11/15 09:57:15;;;;;;;10.70;8.50;;;;;;;19.54;30.78;101453.81;1716949;81;21757;-66
2021/11/15 09:59:44;;;;;;;10.10;8.00;;;;;;;19.14;31.54;101455.37;1715065;80;22162;-66
2021/11/15 10:02:11;;;;;;;13.27;8.93;;;;;;;19.14;31.54;101455.37;1715944;81;21776;-66
2021/11/15 10:04:39;;;;;;;11.43;7.80;;;;;;;19.40;30.87;101452.30;1722474;81;21696;-67
2021/11/15 10:07:06;;;;;;;10.33;7.87;;;;;;;19.00;31.17;101452.47;1721152;82;22518;-67
2021/11/15 10:09:38;;;;;;;9.17;7.13;;;;;;;19.25;31.04;101453.09;1725608;83;21630;-66
2021/11/15 10:12:12;;;;;;;10.43;7.83;;;;;;;19.07;30.54;101453.26;1722457;82;21664;-66
2021/11/15 10:15:04;;;;;;;8.43;6.57;;;;;;;18.37;31.55;101458.31;1696381;82;21626;-66
2021/11/15 10:17:44;;;;;;;10.07;7.80;;;;;;;18.37;31.55;101458.31;1694826;83;21566;-65
2021/11/15 10:20:11;;;;;;;14.80;7.93;;;;;;;18.44;32.07;101455.13;1719012;81;22525;-71
2021/11/15 10:22:42;;;;;;;10.97;7.10;;;;;;;18.64;31.69;101456.94;1695058;83;21610;-72
2021/11/15 10:25:09;;;;;;;10.43;7.43;;;;;;;18.43;31.58;101461.94;1697226;82;22113;-69
2021/11/15 10:27:38;;;;;;;10.80;6.87;;;;;;;18.79;31.28;101458.86;1714565;82;21635;-74
2021/11/15 10:30:13;;;;;;;10.87;7.50;;;;;;;18.76;31.44;101463.74;1718773;83;22039;-68
2021/11/15 10:32:43;;;;;;;12.27;8.53;;;;;;;19.12;31.62;101454.75;1723754;82;21355;-70
2021/11/15 10:35:10;;;;;;;8.67;6.80;;;;;;;19.18;31.18;101451.28;1721863;82;22480;-67
2021/11/15 10:37:43;;;;;;;9.07;6.80;;;;;;;19.25;31.20;101461.02;1696726;82;21649;-67
2021/11/15 10:40:14;;;;;;;9.13;7.33;;;;;;;19.08;31.70;101470.73;1693468;82;22615;-67
2021/11/15 10:42:49;;;;;;;9.00;6.30;;;;;;;19.08;31.70;101470.73;1720002;82;21909;-67
2021/11/15 10:45:20;;;;;;;10.77;6.20;;;;;;;19.17;30.99;101466.04;1713869;83;21531;-73
2021/11/15 10:47:59;;;;;;;10.30;5.92;;;;;;;19.18;30.85;101469.78;1725461;82;21727;-66
2021/11/15 10:50:32;;;;;;;6.90;4.27;;;;;;;19.04;30.98;101480.09;1720872;81;21158;-73
2021/11/15 10:53:10;;;;;;;7.60;5.20;;;;;;;19.15;30.55;101478.64;1719932;80;21990;-72
2021/11/15 10:55:47;;;;;;;6.17;4.37;;;;;;;18.93;30.61;101476.78;1697084;82;21648;-67
2021/11/15 10:58:16;;;;;;;7.10;4.50;;;;;;;18.75;30.82;101485.88;1693197;83;21621;-63
2021/11/15 11:01:05;;;;;;;6.30;4.40;;;;;;;18.28;31.44;101496.98;1717713;82;21603;-71
2021/11/15 11:03:18;;;;;;;6.93;3.83;;;;;;;18.28;31.44;101496.98;1703093;81;21600;-66
2021/11/15 11:05:46;;;;;;;10.13;5.45;;;;;;;17.89;31.67;101505.19;1747775;80;22193;-66
2021/11/15 11:08:24;;;;;;;7.77;4.97;;;;;;;17.96;31.74;101507.33;1770093;80;21081;-68
2021/11/15 11:11:08;;;;;;;6.77;4.60;;;;;;;17.96;31.74;101507.33;1770088;80;21993;-65
2021/11/15 11:14:04;;;;;;;9.67;4.63;;;;;;;17.60;31.81;101511.06;1771878;80;21513;-72
2021/11/15 11:16:40;;;;;;;8.10;3.90;;;;;;;17.60;31.81;101511.06;1772405;79;21949;-64
2021/11/15 11:27:13;;;;;;;7.37;3.57;;;;;;;16.42;32.90;101522.55;1771832;80;21846;-65
2021/11/15 11:29:44;;;;;;;6.90;3.40;;;;;;;16.20;33.25;101522.56;1770510;80;21144;-64
2021/11/15 11:32:14;;;;;;;5.67;4.10;;;;;;;16.18;33.54;101543.01;1767698;79;21232;-65
2021/11/15 11:34:41;;;;;;;9.57;4.90;;;;;;;16.34;33.62;101541.12;1767260;80;20934;-68